Terminal Aerodrome Forecast
Issued by NWS

Home | Current Version | Previous Version | Text Only | Print | Product List | Glossary On
Versions: 1 2 3 4 5 6 7 8 9 10 11 12 13 14 15 16
000
FTUS44 KSJT 301200 AAA
TAFSOA
TAF AMD
KSOA 301244Z 3013/0112 VRB03KT P6SM SCT012 BKN200
      TEMPO 3013/3015 5SM BR BKN012
     FM301500 VRB05KT P6SM SCT025 BKN250
     FM301800 17008KT P6SM SCT040
     FM010000 16006KT P6SM SCT250=

USA.gov is the U.S. government's official web portal to all federal, state and local government web resources and services.